Terminal Aerodrome Forecast
Issued by NWS

Home | Current Version | Previous Version | Text Only | Print | Product List | Glossary On
Versions: 1 2 3 4 5 6 7 8 9 10 11 12 13
000
FTUS44 KLIX 030532
TAFGPT
TAF
KGPT 030532Z 0306/0406 20004KT P6SM SCT250
      TEMPO 0310/0314 SCT020
     FM031400 20010KT P6SM SCT035
     FM040100 19005KT P6SM BKN250=

USA.gov is the U.S. government's official web portal to all federal, state and local government web resources and services.